createdAt,value
2019-05-29T00:01:21.692Z,67.87
2019-05-29T00:03:49.962Z,68.06
2019-05-29T00:06:18.641Z,68.23
2019-05-29T00:08:47.127Z,68.47
2019-05-29T00:11:15.615Z,68.69
2019-05-29T00:13:44.086Z,68.84
2019-05-29T00:16:14.524Z,69.05
2019-05-29T00:18:43.037Z,69.20
2019-05-29T00:21:11.971Z,69.32
2019-05-29T00:23:41.599Z,69.46
2019-05-29T00:26:10.424Z,69.68
2019-05-29T00:28:38.914Z,69.96
2019-05-29T00:31:07.750Z,70.17
2019-05-29T00:33:36.286Z,70.43
2019-05-29T00:36:06.159Z,70.63
2019-05-29T00:38:34.843Z,70.82
2019-05-29T00:41:03.341Z,70.98
2019-05-29T00:43:31.840Z,71.11
2019-05-29T00:46:00.340Z,71.20
2019-05-29T00:48:28.815Z,71.34
2019-05-29T00:50:57.290Z,71.52
2019-05-29T00:53:25.800Z,71.83
2019-05-29T00:55:54.276Z,72.08
2019-05-29T00:58:22.747Z,72.20
2019-05-29T01:00:51.289Z,72.37
2019-05-29T01:03:19.862Z,72.60
2019-05-29T01:05:48.319Z,72.73
2019-05-29T01:08:17.007Z,72.87
2019-05-29T01:10:45.481Z,72.93
2019-05-29T01:13:15.076Z,73.06
2019-05-29T01:15:43.735Z,73.07
2019-05-29T01:18:13.698Z,72.99
2019-05-29T01:20:42.427Z,73.10
2019-05-29T01:23:12.083Z,73.11
2019-05-29T01:25:40.672Z,73.25
2019-05-29T01:28:09.142Z,73.43
2019-05-29T01:30:37.643Z,73.62
2019-05-29T01:33:06.194Z,73.79
2019-05-29T01:35:34.670Z,73.88
2019-05-29T01:38:04.449Z,74.05
2019-05-29T01:40:32.915Z,74.05
2019-05-29T01:43:01.378Z,74.04
2019-05-29T01:45:29.892Z,74.15
2019-05-29T01:47:58.365Z,74.02
2019-05-29T01:50:27.943Z,74.03
2019-05-29T01:52:56.526Z,74.01
2019-05-29T01:55:24.977Z,74.12
2019-05-29T01:57:53.448Z,74.15
2019-05-29T02:00:24.003Z,74.05
2019-05-29T02:02:52.632Z,74.05
2019-05-29T02:05:22.046Z,74.08
2019-05-29T02:07:50.774Z,74.12
2019-05-29T02:10:20.295Z,73.98
2019-05-29T02:12:48.856Z,73.94
2019-05-29T02:15:29.359Z,74.04
2019-05-29T02:17:47.925Z,74.03
2019-05-29T02:20:16.927Z,74.13
2019-05-29T02:22:45.526Z,74.23
2019-05-29T02:25:17.321Z,74.13
2019-05-29T02:27:44.317Z,74.16
2019-05-29T02:30:12.896Z,74.20
2019-05-29T02:32:41.377Z,74.17
2019-05-29T02:35:09.932Z,74.16
2019-05-29T02:37:38.664Z,74.16
2019-05-29T02:40:08.409Z,74.18
2019-05-29T02:42:37.033Z,74.29
2019-05-29T02:45:09.000Z,74.26
2019-05-29T02:47:37.455Z,74.35
2019-05-29T02:50:07.943Z,74.32
2019-05-29T02:52:36.446Z,74.31
2019-05-29T02:55:07.065Z,74.33
2019-05-29T02:57:35.556Z,74.38
2019-05-29T03:00:06.193Z,74.41
2019-05-29T03:02:34.668Z,74.42
2019-05-29T03:05:03.687Z,74.46
2019-05-29T03:07:32.761Z,74.49
2019-05-29T03:10:01.493Z,74.42
2019-05-29T03:12:31.443Z,74.47
2019-05-29T03:15:00.249Z,74.48
2019-05-29T03:17:29.811Z,74.37
2019-05-29T03:19:58.485Z,74.11
2019-05-29T03:22:28.689Z,73.99
2019-05-29T03:24:57.281Z,73.78
2019-05-29T03:27:25.764Z,73.59
2019-05-29T03:29:54.254Z,73.55
2019-05-29T03:32:22.735Z,73.53
2019-05-29T03:34:51.189Z,73.40
2019-05-29T03:37:19.699Z,73.34
2019-05-29T03:39:48.178Z,73.26
2019-05-29T03:42:16.873Z,73.10
2019-05-29T03:44:45.411Z,72.97
2019-05-29T03:47:13.886Z,72.84
2019-05-29T03:49:42.362Z,72.41
2019-05-29T03:52:10.875Z,72.04
2019-05-29T03:54:39.367Z,71.77
2019-05-29T03:57:07.842Z,71.74
2019-05-29T03:59:37.460Z,71.53
2019-05-29T04:02:06.085Z,71.37
2019-05-29T04:04:36.220Z,71.20
2019-05-29T04:07:04.787Z,70.97
2019-05-29T04:09:33.482Z,70.44
2019-05-29T04:12:01.911Z,70.25
2019-05-29T04:14:31.625Z,69.95
2019-05-29T04:17:00.688Z,69.46
2019-05-29T04:19:30.494Z,69.21
2019-05-29T04:22:03.039Z,68.88
2019-05-29T04:24:34.024Z,68.43
2019-05-29T04:27:04.543Z,67.99
2019-05-29T04:29:34.218Z,67.72
2019-05-29T04:32:02.773Z,67.50
2019-05-29T04:34:31.688Z,67.14
2019-05-29T04:37:01.561Z,66.08
2019-05-29T04:39:30.591Z,65.87
2019-05-29T04:41:59.173Z,65.50
2019-05-29T04:44:28.799Z,65.21
2019-05-29T04:47:10.389Z,64.99
2019-05-29T04:49:29.257Z,64.58
2019-05-29T04:51:57.979Z,64.39
2019-05-29T04:54:26.471Z,64.30
2019-05-29T04:56:54.919Z,64.08
2019-05-29T04:59:23.458Z,63.64
2019-05-29T05:01:51.921Z,62.73
2019-05-29T05:04:20.393Z,62.79
2019-05-29T05:06:48.909Z,62.78
2019-05-29T05:09:17.375Z,62.30
2019-05-29T05:11:45.924Z,62.21
2019-05-29T05:14:14.426Z,62.20
2019-05-29T05:16:42.937Z,62.09
2019-05-29T05:19:11.461Z,62.16
2019-05-29T05:21:40.351Z,62.09
2019-05-29T05:24:08.940Z,62.31
2019-05-29T05:26:38.399Z,62.36
2019-05-29T05:29:07.119Z,62.49
2019-05-29T05:31:36.502Z,62.54
2019-05-29T05:34:05.444Z,62.12
2019-05-29T05:36:34.672Z,62.13
2019-05-29T05:39:03.228Z,61.43
2019-05-29T05:41:32.711Z,60.74
2019-05-29T05:44:01.417Z,60.54
2019-05-29T05:46:30.961Z,60.35
2019-05-29T05:48:59.492Z,60.00
2019-05-29T05:51:28.017Z,60.21
2019-05-29T05:53:56.508Z,59.88
2019-05-29T05:56:25.002Z,59.93
2019-05-29T05:58:53.534Z,59.60
2019-05-29T06:01:22.021Z,59.02
2019-05-29T06:03:50.508Z,58.80
2019-05-29T06:06:19.033Z,58.28
2019-05-29T06:08:47.516Z,58.40
2019-05-29T06:11:15.995Z,58.46
2019-05-29T06:13:44.494Z,58.44
2019-05-29T06:16:12.978Z,58.52
2019-05-29T06:18:42.789Z,57.57
2019-05-29T06:21:11.615Z,55.99
2019-05-29T06:23:41.130Z,55.75
2019-05-29T06:26:09.668Z,54.65
2019-05-29T06:28:39.114Z,54.82
2019-05-29T06:31:07.662Z,54.71
2019-05-29T06:33:37.327Z,54.25
2019-05-29T06:36:05.961Z,53.44
2019-05-29T06:38:35.597Z,52.77
2019-05-29T06:41:04.307Z,51.97
2019-05-29T06:43:33.792Z,51.06
2019-05-29T06:46:02.378Z,51.29
2019-05-29T06:48:42.885Z,51.00
2019-05-29T06:51:01.504Z,50.78
2019-05-29T06:53:30.017Z,51.19
2019-05-29T06:55:59.716Z,50.82
2019-05-29T06:58:28.738Z,50.03
2019-05-29T07:00:57.216Z,49.66
2019-05-29T07:03:25.706Z,49.77
2019-05-29T07:05:54.278Z,49.30
2019-05-29T07:08:37.387Z,50.12
2019-05-29T07:10:52.950Z,50.30
2019-05-29T07:13:21.493Z,50.80
2019-05-29T07:15:49.943Z,50.44
2019-05-29T07:18:18.430Z,50.70
2019-05-29T07:20:47.072Z,50.62
2019-05-29T07:23:15.597Z,50.65
2019-05-29T07:25:45.490Z,49.74
2019-05-29T07:28:14.346Z,49.35
2019-05-29T07:30:48.263Z,48.46
2019-05-29T07:33:13.094Z,48.71
2019-05-29T07:35:41.609Z,48.88
2019-05-29T07:38:10.091Z,49.12
2019-05-29T07:40:40.488Z,49.49
2019-05-29T07:43:08.817Z,49.93
2019-05-29T07:45:37.781Z,49.96
2019-05-29T07:48:06.744Z,49.98
2019-05-29T07:50:36.356Z,49.67
2019-05-29T07:53:05.094Z,48.73
2019-05-29T07:55:33.584Z,47.18
2019-05-29T07:58:02.090Z,46.29
2019-05-29T08:00:35.730Z,45.90
2019-05-29T08:03:00.855Z,45.05
2019-05-29T08:05:29.377Z,44.49
2019-05-29T08:07:57.862Z,44.07
2019-05-29T08:10:26.697Z,43.55
2019-05-29T08:12:56.018Z,43.55
2019-05-29T08:15:24.790Z,43.60
2019-05-29T08:17:53.262Z,43.00
2019-05-29T08:20:22.108Z,43.08
2019-05-29T08:22:51.065Z,42.70
2019-05-29T08:25:19.823Z,42.48
2019-05-29T08:27:48.861Z,42.31
2019-05-29T08:30:19.070Z,41.86
2019-05-29T08:32:47.539Z,41.61
2019-05-29T08:35:16.196Z,41.43
2019-05-29T08:37:44.964Z,41.45
2019-05-29T08:40:14.122Z,41.32
2019-05-29T08:42:43.172Z,41.33
2019-05-29T08:45:11.860Z,40.19
2019-05-29T08:47:41.395Z,39.60
2019-05-29T08:50:18.542Z,39.75
2019-05-29T08:52:43.835Z,40.29
2019-05-29T08:55:13.901Z,40.12
2019-05-29T08:57:42.691Z,40.10
2019-05-29T09:00:12.006Z,38.60
2019-05-29T09:02:40.483Z,38.81
2019-05-29T09:05:09.680Z,37.29
2019-05-29T09:07:38.139Z,37.39
2019-05-29T09:10:07.462Z,38.35
2019-05-29T09:12:35.999Z,37.68
2019-05-29T09:15:09.667Z,38.02
2019-05-29T09:17:38.547Z,37.89
2019-05-29T09:20:16.299Z,37.62
2019-05-29T09:22:37.908Z,36.97
2019-05-29T09:25:07.128Z,36.86
2019-05-29T09:27:35.632Z,36.68
2019-05-29T09:30:05.152Z,36.35
2019-05-29T09:32:49.265Z,36.01
2019-05-29T09:35:04.380Z,35.91
2019-05-29T09:37:32.844Z,35.93
2019-05-29T09:40:01.386Z,36.86
2019-05-29T09:42:29.904Z,37.39
2019-05-29T09:44:58.374Z,36.79
2019-05-29T09:47:26.880Z,36.76
2019-05-29T09:49:55.397Z,37.02
2019-05-29T09:52:25.376Z,36.62
2019-05-29T09:54:54.678Z,36.07
2019-05-29T09:57:23.183Z,34.84
2019-05-29T09:59:53.820Z,35.20
2019-05-29T10:02:21.963Z,34.41
2019-05-29T10:04:51.609Z,34.18
2019-05-29T10:07:21.355Z,34.80
2019-05-29T10:09:49.833Z,34.94
2019-05-29T10:12:18.332Z,34.82
2019-05-29T10:14:46.853Z,34.94
2019-05-29T10:17:15.332Z,35.05
2019-05-29T10:19:43.871Z,35.27
2019-05-29T10:22:12.336Z,35.33
2019-05-29T10:24:40.813Z,34.74
2019-05-29T10:27:09.331Z,34.27
2019-05-29T10:29:37.818Z,34.24
2019-05-29T10:32:06.288Z,34.78
2019-05-29T10:34:34.812Z,35.35
2019-05-29T10:37:03.428Z,34.88
2019-05-29T10:39:31.908Z,33.54
2019-05-29T10:42:00.417Z,33.54
2019-05-29T10:44:28.884Z,33.79
2019-05-29T10:46:57.363Z,34.17
2019-05-29T10:49:25.949Z,34.37
2019-05-29T10:52:11.785Z,34.17
2019-05-29T10:54:24.692Z,34.42
2019-05-29T10:56:54.959Z,34.22
2019-05-29T10:59:23.661Z,34.35
2019-05-29T11:01:53.718Z,34.69
2019-05-29T11:04:22.562Z,35.33
2019-05-29T11:06:52.464Z,35.21
2019-05-29T11:09:21.249Z,34.39
2019-05-29T11:11:50.698Z,32.94
2019-05-29T11:14:19.290Z,33.01
2019-05-29T11:16:49.046Z,33.47
2019-05-29T11:19:17.751Z,33.05
2019-05-29T11:21:47.980Z,33.23
2019-05-29T11:24:16.641Z,33.51
2019-05-29T11:26:45.147Z,33.58
2019-05-29T11:29:13.699Z,33.89
2019-05-29T11:31:42.199Z,33.99
2019-05-29T11:34:10.725Z,33.90
2019-05-29T11:36:39.205Z,33.81
2019-05-29T11:39:09.215Z,34.28
2019-05-29T11:41:37.828Z,34.40
2019-05-29T11:44:06.295Z,34.88
2019-05-29T11:46:35.026Z,35.05
2019-05-29T11:49:03.775Z,35.56
2019-05-29T11:51:32.333Z,35.64
2019-05-29T11:54:02.345Z,35.32
2019-05-29T11:56:31.096Z,34.84
2019-05-29T11:58:59.783Z,34.57
2019-05-29T12:01:28.275Z,34.64
2019-05-29T12:04:19.595Z,34.53
2019-05-29T12:06:27.083Z,35.25
2019-05-29T12:08:55.818Z,36.09
2019-05-29T12:11:24.617Z,36.09
2019-05-29T12:13:54.160Z,35.81
2019-05-29T12:16:22.874Z,35.98
2019-05-29T12:18:51.551Z,35.44
2019-05-29T12:21:20.021Z,35.96
2019-05-29T12:23:48.576Z,35.51
2019-05-29T12:26:22.635Z,35.55
2019-05-29T12:28:47.304Z,35.38
2019-05-29T12:31:15.791Z,35.19
2019-05-29T12:33:44.291Z,35.34
2019-05-29T12:36:12.776Z,35.59
2019-05-29T12:38:41.250Z,35.56
2019-05-29T12:41:09.764Z,35.45
2019-05-29T12:43:38.236Z,35.29
2019-05-29T12:46:06.708Z,35.08
2019-05-29T12:48:35.237Z,34.19
2019-05-29T12:51:04.166Z,34.20
2019-05-29T12:53:32.870Z,34.22
2019-05-29T12:56:02.556Z,34.31
2019-05-29T12:58:31.167Z,34.02
2019-05-29T13:01:00.687Z,34.31
2019-05-29T13:03:29.431Z,34.29
2019-05-29T13:05:58.206Z,34.38
2019-05-29T13:08:26.894Z,34.65
2019-05-29T13:10:56.232Z,34.55
2019-05-29T13:13:24.791Z,34.11
2019-05-29T13:15:54.630Z,34.37
2019-05-29T13:18:23.360Z,34.44
2019-05-29T13:20:51.839Z,34.84
2019-05-29T13:23:20.380Z,35.17
2019-05-29T13:25:48.844Z,35.14
2019-05-29T13:28:17.316Z,34.28
2019-05-29T13:30:45.822Z,33.59
2019-05-29T13:33:14.307Z,33.57
2019-05-29T13:35:42.798Z,33.21
2019-05-29T13:38:11.331Z,32.83
2019-05-29T13:40:39.821Z,33.47
2019-05-29T13:43:15.052Z,33.61
2019-05-29T13:45:38.641Z,34.05
2019-05-29T13:48:07.537Z,33.98
2019-05-29T13:50:36.162Z,33.99
2019-05-29T13:53:05.515Z,33.75
2019-05-29T13:55:34.216Z,33.88
2019-05-29T13:58:03.782Z,33.88
2019-05-29T14:00:34.779Z,33.92
2019-05-29T14:03:04.849Z,33.34
2019-05-29T14:05:33.540Z,33.23
2019-05-29T14:08:02.761Z,33.54
2019-05-29T14:10:31.678Z,33.87
2019-05-29T14:13:00.928Z,33.84
2019-05-29T14:15:29.925Z,34.11
2019-05-29T14:18:00.595Z,33.29
2019-05-29T14:20:29.530Z,32.92
2019-05-29T14:22:58.208Z,33.34
2019-05-29T14:25:27.102Z,32.89
2019-05-29T14:27:55.656Z,32.83
2019-05-29T14:30:24.544Z,32.80
2019-05-29T14:32:53.039Z,31.82
2019-05-29T14:35:21.509Z,31.99
2019-05-29T14:37:50.033Z,31.96
2019-05-29T14:40:18.893Z,31.79
2019-05-29T14:42:47.340Z,32.67
2019-05-29T14:45:16.145Z,32.91
2019-05-29T14:47:44.625Z,33.14
2019-05-29T14:50:14.488Z,32.71
2019-05-29T14:52:43.009Z,32.61
2019-05-29T14:55:16.200Z,33.27
2019-05-29T14:57:42.042Z,33.61
2019-05-29T15:00:24.161Z,33.75
2019-05-29T15:02:42.400Z,33.18
2019-05-29T15:05:12.196Z,33.35
2019-05-29T15:07:41.201Z,33.41
2019-05-29T15:10:22.642Z,33.11
2019-05-29T15:12:40.629Z,33.46
2019-05-29T15:15:11.400Z,33.69
2019-05-29T15:17:39.907Z,33.83
2019-05-29T15:20:10.106Z,33.75
2019-05-29T15:22:39.783Z,33.37
2019-05-29T15:25:18.343Z,33.68
2019-05-29T15:27:39.510Z,33.62
2019-05-29T15:30:11.102Z,33.02
2019-05-29T15:32:40.059Z,33.03
2019-05-29T15:35:13.805Z,33.27
2019-05-29T15:37:40.064Z,33.66
2019-05-29T15:40:11.032Z,33.36
2019-05-29T15:42:39.596Z,33.11
2019-05-29T15:45:09.911Z,32.94
2019-05-29T15:47:38.514Z,33.37
2019-05-29T15:50:09.299Z,33.89
2019-05-29T15:52:37.973Z,33.15
2019-05-29T15:55:27.042Z,33.46
2019-05-29T15:57:40.303Z,33.20
2019-05-29T16:00:13.650Z,33.53
2019-05-29T16:02:42.392Z,33.61
2019-05-29T16:05:12.936Z,32.88
2019-05-29T16:07:41.780Z,32.74
2019-05-29T16:10:16.448Z,32.99
2019-05-29T16:12:43.739Z,32.99
2019-05-29T16:15:15.143Z,32.83
2019-05-29T16:17:43.945Z,32.48
2019-05-29T16:20:12.505Z,32.59
2019-05-29T16:22:41.033Z,32.54
2019-05-29T16:25:10.816Z,32.18
2019-05-29T16:27:39.537Z,32.23
2019-05-29T16:30:08.796Z,31.77
2019-05-29T16:32:37.276Z,31.32
2019-05-29T16:35:08.501Z,31.32
2019-05-29T16:37:37.027Z,30.80
2019-05-29T16:40:08.678Z,30.61
2019-05-29T16:42:37.144Z,30.35
2019-05-29T16:45:08.591Z,30.41
2019-05-29T16:47:37.060Z,30.59
2019-05-29T16:50:08.785Z,30.52
2019-05-29T16:52:37.857Z,30.31
2019-05-29T16:55:07.589Z,30.23
2019-05-29T16:57:36.050Z,29.80
2019-05-29T17:00:08.853Z,29.77
2019-05-29T17:02:37.700Z,29.46
2019-05-29T17:05:06.744Z,29.26
2019-05-29T17:07:35.563Z,28.90
2019-05-29T17:10:06.282Z,29.19
2019-05-29T17:12:34.750Z,28.91
2019-05-29T17:15:05.663Z,29.11
2019-05-29T17:17:34.115Z,29.16
2019-05-29T17:20:02.742Z,29.02
2019-05-29T17:22:31.290Z,29.06
2019-05-29T17:24:59.778Z,28.78
2019-05-29T17:27:28.246Z,28.66
2019-05-29T17:29:56.761Z,28.58
2019-05-29T17:32:25.442Z,28.45
2019-05-29T17:34:53.946Z,28.46
2019-05-29T17:37:23.148Z,28.48
2019-05-29T17:39:51.613Z,28.15
2019-05-29T17:42:20.311Z,28.54
2019-05-29T17:44:48.873Z,29.25
2019-05-29T17:47:17.759Z,29.48
2019-05-29T17:49:46.304Z,29.75
2019-05-29T17:52:15.738Z,30.36
2019-05-29T17:54:44.369Z,30.94
2019-05-29T17:57:12.842Z,31.42
2019-05-29T17:59:41.424Z,32.21
2019-05-29T18:02:09.905Z,32.66
2019-05-29T18:04:38.360Z,33.52
2019-05-29T18:07:06.882Z,33.87
2019-05-29T18:09:35.364Z,34.37
2019-05-29T18:12:03.894Z,34.72
2019-05-29T18:14:32.425Z,35.07
2019-05-29T18:17:01.066Z,35.40
2019-05-29T18:19:29.544Z,36.04
2019-05-29T18:21:58.519Z,36.00
2019-05-29T18:24:31.980Z,36.06
2019-05-29T18:27:00.451Z,36.45
2019-05-29T18:29:29.679Z,36.58
2019-05-29T18:32:00.063Z,36.89
2019-05-29T18:34:29.573Z,36.92
2019-05-29T18:36:58.387Z,37.22
2019-05-29T18:39:27.006Z,37.21
2019-05-29T18:41:55.837Z,37.24
2019-05-29T18:44:24.856Z,37.55
2019-05-29T18:46:53.769Z,37.53
2019-05-29T18:49:22.626Z,37.41
2019-05-29T18:51:51.583Z,37.40
2019-05-29T18:54:20.057Z,37.54
2019-05-29T18:57:13.091Z,37.63
2019-05-29T18:59:18.819Z,37.84
2019-05-29T19:01:47.295Z,38.08
2019-05-29T19:04:15.774Z,38.23
2019-05-29T19:06:44.298Z,38.51
2019-05-29T19:09:12.842Z,38.63
2019-05-29T19:11:41.326Z,38.70
2019-05-29T19:14:09.847Z,39.00
2019-05-29T19:16:39.658Z,39.02
2019-05-29T19:19:08.345Z,39.06
2019-05-29T19:21:36.852Z,38.93
2019-05-29T19:24:05.397Z,39.11
2019-05-29T19:26:36.758Z,39.59
2019-05-29T19:29:04.205Z,39.79
2019-05-29T19:31:33.359Z,40.28
2019-05-29T19:34:02.043Z,40.69
2019-05-29T19:36:31.772Z,41.42
2019-05-29T19:39:00.387Z,41.84
2019-05-29T19:41:29.982Z,42.55
2019-05-29T19:43:58.644Z,43.21
2019-05-29T19:46:27.124Z,43.60
2019-05-29T19:48:55.596Z,44.09
2019-05-29T19:51:25.209Z,44.25
2019-05-29T19:53:53.865Z,44.60
2019-05-29T19:56:22.335Z,45.16
2019-05-29T19:58:50.873Z,45.39
2019-05-29T20:01:30.614Z,45.70
2019-05-29T20:03:49.612Z,46.20
2019-05-29T20:06:18.146Z,46.71
2019-05-29T20:08:46.672Z,47.03
2019-05-29T20:11:16.413Z,47.43
2019-05-29T20:13:44.970Z,47.70
2019-05-29T20:16:13.437Z,48.22
2019-05-29T20:18:41.921Z,48.66
2019-05-29T20:21:10.460Z,48.84
2019-05-29T20:23:38.974Z,49.28
2019-05-29T20:26:07.480Z,49.52
2019-05-29T20:28:36.366Z,49.72
2019-05-29T20:31:05.115Z,50.12
2019-05-29T20:33:34.536Z,50.25
2019-05-29T20:36:03.177Z,50.57
2019-05-29T20:38:31.650Z,51.08
2019-05-29T20:41:00.113Z,51.35
2019-05-29T20:43:28.642Z,51.58
2019-05-29T20:45:57.118Z,51.81
2019-05-29T20:48:25.595Z,52.11
2019-05-29T20:50:54.130Z,52.52
2019-05-29T20:53:22.606Z,52.91
2019-05-29T20:55:51.084Z,53.43
2019-05-29T20:58:24.471Z,53.76
2019-05-29T21:00:49.808Z,54.18
2019-05-29T21:03:18.463Z,54.47
2019-05-29T21:05:46.965Z,54.47
2019-05-29T21:08:15.440Z,54.40
2019-05-29T21:10:43.931Z,54.40
2019-05-29T21:13:12.926Z,54.44
2019-05-29T21:15:43.761Z,54.34
2019-05-29T21:18:12.294Z,54.29
2019-05-29T21:20:40.822Z,54.39
2019-05-29T21:23:09.288Z,54.59
2019-05-29T21:25:40.732Z,54.83
2019-05-29T21:28:09.455Z,55.07
2019-05-29T21:30:37.965Z,55.21
2019-05-29T21:33:06.444Z,55.39
2019-05-29T21:35:36.074Z,55.66
2019-05-29T21:38:04.708Z,56.01
2019-05-29T21:40:33.181Z,56.35
2019-05-29T21:43:01.685Z,56.81
2019-05-29T21:45:30.203Z,57.08
2019-05-29T21:47:58.712Z,57.39
2019-05-29T21:50:27.221Z,57.62
2019-05-29T21:52:55.712Z,57.79
2019-05-29T21:55:24.185Z,58.11
2019-05-29T21:57:52.716Z,58.52
2019-05-29T22:00:38.000Z,58.70
2019-05-29T22:03:06.541Z,59.00
2019-05-29T22:05:35.015Z,59.21
2019-05-29T22:08:03.497Z,59.37
2019-05-29T22:10:32.145Z,59.07
2019-05-29T22:13:01.001Z,59.25
2019-05-29T22:15:29.702Z,59.61
2019-05-29T22:17:59.178Z,60.13
2019-05-29T22:20:27.780Z,60.35
2019-05-29T22:22:57.191Z,60.43
2019-05-29T22:25:25.906Z,60.73
2019-05-29T22:27:55.614Z,61.01
2019-05-29T22:30:24.217Z,61.29
2019-05-29T22:32:53.251Z,61.44
2019-05-29T22:35:22.073Z,61.42
2019-05-29T22:37:51.540Z,61.38
2019-05-29T22:40:20.369Z,61.44
2019-05-29T22:42:48.843Z,61.67
2019-05-29T22:45:17.742Z,61.71
2019-05-29T22:47:46.265Z,61.92
2019-05-29T22:50:14.896Z,62.13
2019-05-29T22:52:43.463Z,62.32
2019-05-29T22:55:12.134Z,62.54
2019-05-29T22:57:40.625Z,62.73
2019-05-29T23:00:10.009Z,62.78
2019-05-29T23:02:38.530Z,62.91
2019-05-29T23:05:07.599Z,63.27
2019-05-29T23:07:36.078Z,63.50
2019-05-29T23:10:07.940Z,63.73
2019-05-29T23:12:36.418Z,63.88
2019-05-29T23:15:07.874Z,64.07
2019-05-29T23:17:37.401Z,64.18
2019-05-29T23:20:07.891Z,64.15
2019-05-29T23:22:36.437Z,64.35
2019-05-29T23:25:05.941Z,64.39
2019-05-29T23:27:35.260Z,64.56
2019-05-29T23:30:05.460Z,64.60
2019-05-29T23:32:33.990Z,64.75
2019-05-29T23:35:03.525Z,64.71
2019-05-29T23:37:33.098Z,65.17
2019-05-29T23:40:01.682Z,65.46
2019-05-29T23:42:30.152Z,65.59
2019-05-29T23:44:59.443Z,65.96
2019-05-29T23:47:28.135Z,66.18
2019-05-29T23:49:57.555Z,66.19
2019-05-29T23:52:26.159Z,66.30
2019-05-29T23:54:55.703Z,66.37
2019-05-29T23:57:24.239Z,66.50
